< < Back
Terminal Aerodrome Forecast


Current Version              Previous Versions:   1  2  3  4  5  6  7  8  9  

Terminal Aerodrome Forecast

189
FTUS42 KMLB 190200 AAA
TAFMCO
TAF AMD
KMCO 190259Z 1903/1924 17007KT P6SM VCSH SCT050 BKN100
     FM190800 18010KT P6SM VCSH BKN035 OVC050
     FM191300 22010KT P6SM VCSH BKN025 OVC050
     FM191800 26013KT P6SM SCT025 BKN035=

Latest METAR

209
SAUS70 KWBC 191000
MTRMCO
METAR KMCO 190953Z 19004KT 9SM FEW004 FEW080 19/18 A2991 RMK AO2 SLP125
T01940183


USA.gov is the U.S. government's official web portal to all federal, state and local government web resources and services.